createdAt,value
2022-12-31T00:02:19.238Z,16.74
2022-12-31T00:04:45.949Z,16.66
2022-12-31T00:07:12.599Z,16.72
2022-12-31T00:09:39.312Z,17.06
2022-12-31T00:12:06.266Z,16.81
2022-12-31T00:14:32.938Z,16.92
2022-12-31T00:16:59.640Z,16.75
2022-12-31T00:19:26.395Z,17.04
2022-12-31T00:21:53.055Z,16.75
2022-12-31T00:24:19.728Z,16.59
2022-12-31T00:26:46.715Z,16.66
2022-12-31T00:29:13.352Z,16.65
2022-12-31T00:31:40.168Z,16.95
2022-12-31T00:34:07.437Z,16.86
2022-12-31T00:36:39.605Z,16.83
2022-12-31T00:39:08.298Z,16.54
2022-12-31T00:41:35.507Z,16.72
2022-12-31T00:44:02.781Z,16.92
2022-12-31T00:46:29.620Z,16.84
2022-12-31T00:48:56.453Z,17.02
2022-12-31T00:51:27.199Z,17.50
2022-12-31T00:53:55.080Z,17.56
2022-12-31T00:56:24.069Z,17.31
2022-12-31T00:58:51.587Z,17.60
2022-12-31T01:01:21.392Z,17.35
2022-12-31T01:03:50.802Z,17.07
2022-12-31T01:06:18.350Z,17.51
2022-12-31T01:08:45.303Z,17.28
2022-12-31T01:11:19.174Z,17.50
2022-12-31T01:14:01.154Z,17.33
2022-12-31T01:16:42.711Z,17.51
2022-12-31T01:19:13.388Z,17.23
2022-12-31T01:21:42.405Z,17.39
2022-12-31T01:24:10.655Z,17.00
2022-12-31T01:26:37.936Z,17.31
2022-12-31T01:29:06.490Z,17.41
2022-12-31T01:31:34.359Z,17.50
2022-12-31T01:34:01.046Z,17.01
2022-12-31T01:36:30.073Z,17.25
2022-12-31T01:38:58.716Z,17.45
2022-12-31T01:41:31.591Z,17.18
2022-12-31T01:44:19.453Z,17.37
2022-12-31T01:46:49.550Z,17.05
2022-12-31T01:49:24.158Z,17.03
2022-12-31T01:51:57.858Z,17.26
2022-12-31T01:54:27.196Z,17.46
2022-12-31T01:56:56.259Z,17.23
2022-12-31T01:59:26.755Z,17.44
2022-12-31T02:01:53.867Z,17.23
2022-12-31T02:04:23.916Z,16.99
2022-12-31T02:06:53.905Z,17.25
2022-12-31T02:09:21.084Z,17.41
2022-12-31T02:11:47.880Z,17.34
2022-12-31T02:14:49.503Z,17.24
2022-12-31T02:17:21.238Z,17.26
2022-12-31T02:20:12.764Z,17.57
2022-12-31T02:23:08.820Z,17.36
2022-12-31T02:26:07.079Z,17.43
2022-12-31T02:28:52.465Z,17.87
2022-12-31T02:31:27.640Z,17.42
2022-12-31T02:34:06.044Z,17.43
2022-12-31T02:36:37.919Z,17.52
2022-12-31T02:39:06.216Z,17.68
2022-12-31T02:41:51.403Z,17.18
2022-12-31T02:44:47.241Z,17.75
2022-12-31T02:47:26.605Z,17.41
2022-12-31T02:50:03.674Z,17.77
2022-12-31T02:52:52.158Z,18.11
2022-12-31T02:55:24.562Z,17.82
2022-12-31T02:58:12.874Z,17.70
2022-12-31T03:01:05.320Z,17.44
2022-12-31T03:03:32.254Z,17.95
2022-12-31T03:06:03.154Z,17.62
2022-12-31T03:08:29.917Z,17.66
2022-12-31T03:10:57.027Z,18.08
2022-12-31T03:13:24.566Z,18.24
2022-12-31T03:15:51.304Z,18.01
2022-12-31T03:18:39.843Z,17.67
2022-12-31T03:21:31.525Z,18.22
2022-12-31T03:24:16.851Z,17.93
2022-12-31T03:26:43.484Z,17.92
2022-12-31T03:29:10.111Z,17.94
2022-12-31T03:31:37.328Z,17.90
2022-12-31T03:34:03.992Z,18.00
2022-12-31T03:36:30.647Z,17.95
2022-12-31T03:38:57.318Z,17.70
2022-12-31T03:41:24.092Z,17.99
2022-12-31T03:43:50.780Z,18.34
2022-12-31T03:46:17.560Z,17.91
2022-12-31T03:48:44.225Z,17.83
2022-12-31T03:51:10.874Z,18.06
2022-12-31T03:53:37.600Z,18.30
2022-12-31T03:56:04.686Z,18.10
2022-12-31T03:58:31.508Z,18.40
2022-12-31T04:00:58.276Z,18.13
2022-12-31T04:03:25.036Z,18.11
2022-12-31T04:05:55.762Z,17.89
2022-12-31T04:08:23.194Z,17.92
2022-12-31T04:10:49.850Z,18.33
2022-12-31T04:13:16.543Z,18.19
2022-12-31T04:15:43.245Z,18.29
2022-12-31T04:18:09.972Z,18.58
2022-12-31T04:20:36.645Z,18.29
2022-12-31T04:23:04.033Z,18.17
2022-12-31T04:25:39.384Z,17.94
2022-12-31T04:28:06.583Z,18.39
2022-12-31T04:30:33.229Z,18.16
2022-12-31T04:32:59.875Z,18.31
2022-12-31T04:35:26.577Z,18.43
2022-12-31T04:37:53.210Z,18.29
2022-12-31T04:40:19.901Z,18.33
2022-12-31T04:42:46.536Z,18.57
2022-12-31T04:45:13.204Z,18.57
2022-12-31T04:47:39.837Z,18.68
2022-12-31T04:50:06.756Z,18.97
2022-12-31T04:52:37.185Z,18.62
2022-12-31T04:55:09.060Z,18.77
2022-12-31T04:57:35.665Z,18.67
2022-12-31T05:00:02.773Z,18.85
2022-12-31T05:02:30.862Z,18.74
2022-12-31T05:04:57.665Z,18.67
2022-12-31T05:07:24.301Z,18.78
2022-12-31T05:09:51.399Z,19.13
2022-12-31T05:12:18.156Z,18.68
2022-12-31T05:14:44.856Z,18.97
2022-12-31T05:17:11.556Z,18.73
2022-12-31T05:19:38.435Z,18.97
2022-12-31T05:22:23.548Z,18.74
2022-12-31T05:24:52.213Z,18.86
2022-12-31T05:27:18.910Z,18.84
2022-12-31T05:29:45.692Z,18.58
2022-12-31T05:32:12.443Z,18.55
2022-12-31T05:34:39.165Z,18.78
2022-12-31T05:37:05.911Z,18.89
2022-12-31T05:39:32.654Z,18.77
2022-12-31T05:41:59.260Z,18.67
2022-12-31T05:44:25.951Z,18.72
2022-12-31T05:46:52.664Z,18.79
2022-12-31T05:49:19.264Z,18.91
2022-12-31T05:51:45.890Z,18.73
2022-12-31T05:54:12.584Z,18.84
2022-12-31T05:56:39.237Z,19.01
2022-12-31T05:59:05.960Z,18.81
2022-12-31T06:01:32.889Z,18.56
2022-12-31T06:04:00.724Z,18.96
2022-12-31T06:06:27.461Z,19.04
2022-12-31T06:08:54.405Z,18.99
2022-12-31T06:11:21.125Z,19.27
2022-12-31T06:13:47.926Z,18.60
2022-12-31T06:16:14.711Z,18.79
2022-12-31T06:18:41.659Z,19.35
2022-12-31T06:21:08.387Z,18.86
2022-12-31T06:23:35.263Z,19.08
2022-12-31T06:26:06.460Z,18.91
2022-12-31T06:28:34.695Z,18.51
2022-12-31T06:31:06.872Z,18.64
2022-12-31T06:33:34.393Z,19.19
2022-12-31T06:36:04.217Z,19.16
2022-12-31T06:38:32.915Z,18.54
2022-12-31T06:41:06.687Z,18.60
2022-12-31T06:43:35.118Z,18.59
2022-12-31T06:46:02.836Z,18.56
2022-12-31T06:48:30.095Z,18.55
2022-12-31T06:50:56.997Z,18.56
2022-12-31T06:53:23.772Z,18.68
2022-12-31T06:55:50.746Z,18.80
2022-12-31T06:58:17.738Z,18.55
2022-12-31T07:01:08.388Z,18.40
2022-12-31T07:03:44.218Z,18.92
2022-12-31T07:06:17.156Z,18.47
2022-12-31T07:08:50.305Z,18.42
2022-12-31T07:11:28.881Z,18.54
2022-12-31T07:14:01.513Z,18.15
2022-12-31T07:16:50.107Z,18.53
2022-12-31T07:19:36.939Z,18.54
2022-12-31T07:22:03.978Z,18.48
2022-12-31T07:24:30.947Z,18.65
2022-12-31T07:27:16.482Z,18.81
2022-12-31T07:30:04.132Z,18.94
2022-12-31T07:32:46.279Z,18.55
2022-12-31T07:35:27.319Z,18.58
2022-12-31T07:38:17.561Z,18.49
2022-12-31T07:41:09.704Z,18.46
2022-12-31T07:44:01.750Z,18.56
2022-12-31T07:46:55.408Z,18.22
2022-12-31T07:49:23.390Z,18.76
2022-12-31T07:51:51.690Z,18.36
2022-12-31T07:54:18.681Z,18.39
2022-12-31T07:56:45.782Z,18.56
2022-12-31T07:59:44.018Z,18.83
2022-12-31T08:02:19.990Z,18.56
2022-12-31T08:05:12.197Z,18.46
2022-12-31T08:07:49.158Z,19.12
2022-12-31T08:10:39.267Z,18.71
2022-12-31T08:13:10.607Z,18.83
2022-12-31T08:15:40.425Z,18.83
2022-12-31T08:18:08.072Z,18.42
2022-12-31T08:20:59.601Z,18.76
2022-12-31T08:23:46.217Z,18.78
2022-12-31T08:26:23.657Z,18.69
2022-12-31T08:29:12.101Z,18.84
2022-12-31T08:31:54.381Z,18.84
2022-12-31T08:34:35.204Z,18.72
2022-12-31T08:37:08.827Z,19.27
2022-12-31T08:40:14.829Z,19.08
2022-12-31T08:43:19.795Z,19.22
2022-12-31T08:45:49.706Z,19.01
2022-12-31T08:48:34.645Z,19.08
2022-12-31T08:51:01.555Z,19.22
2022-12-31T08:53:28.711Z,19.16
2022-12-31T08:56:07.575Z,19.57
2022-12-31T08:58:43.282Z,19.57
2022-12-31T09:01:13.725Z,19.44
2022-12-31T09:03:58.549Z,19.72
2022-12-31T09:06:38.427Z,19.83
2022-12-31T09:09:25.288Z,20.14
2022-12-31T09:12:10.577Z,20.29
2022-12-31T09:14:50.179Z,20.23
2022-12-31T09:17:19.774Z,20.61
2022-12-31T09:19:46.784Z,20.66
2022-12-31T09:22:13.659Z,20.40
2022-12-31T09:24:40.586Z,20.49
2022-12-31T09:27:21.162Z,20.76
2022-12-31T09:30:07.469Z,20.95
2022-12-31T09:32:41.810Z,20.70
2022-12-31T09:35:33.298Z,20.75
2022-12-31T09:38:18.858Z,20.73
2022-12-31T09:40:54.303Z,20.73
2022-12-31T09:43:42.190Z,20.43
2022-12-31T09:46:44.316Z,20.48
2022-12-31T09:49:48.602Z,20.48
2022-12-31T09:52:57.451Z,20.98
2022-12-31T09:55:42.199Z,20.81
2022-12-31T09:58:46.583Z,21.01
2022-12-31T10:01:38.157Z,20.83
2022-12-31T10:04:19.549Z,20.40
2022-12-31T10:07:14.353Z,20.45
2022-12-31T10:09:49.821Z,20.34
2022-12-31T10:12:59.210Z,20.04
2022-12-31T10:15:38.026Z,20.46
2022-12-31T10:18:10.623Z,20.22
2022-12-31T10:21:02.161Z,20.42
2022-12-31T10:23:47.000Z,20.49
2022-12-31T10:26:40.106Z,20.56
2022-12-31T10:29:21.777Z,20.35
2022-12-31T10:32:40.966Z,20.11
2022-12-31T10:35:31.070Z,19.88
2022-12-31T10:38:06.090Z,20.23
2022-12-31T10:41:03.342Z,20.40
2022-12-31T10:43:50.217Z,20.56
2022-12-31T10:46:50.872Z,20.54
2022-12-31T10:49:39.155Z,20.87
2022-12-31T10:52:41.953Z,21.61
2022-12-31T10:55:25.464Z,21.62
2022-12-31T10:58:03.837Z,22.04
2022-12-31T11:00:40.245Z,22.06
2022-12-31T11:03:10.002Z,22.15
2022-12-31T11:06:21.622Z,22.49
2022-12-31T11:08:54.757Z,23.41
2022-12-31T11:11:58.871Z,23.99
2022-12-31T11:14:44.146Z,24.60
2022-12-31T11:17:28.132Z,24.79
2022-12-31T11:20:25.715Z,24.94
2022-12-31T11:23:26.504Z,24.78
2022-12-31T11:26:17.230Z,25.04
2022-12-31T11:29:22.404Z,24.68
2022-12-31T11:32:14.449Z,25.63
2022-12-31T11:35:04.786Z,25.80
2022-12-31T11:37:54.452Z,26.00
2022-12-31T11:40:30.067Z,26.20
2022-12-31T11:43:22.682Z,26.94
2022-12-31T11:46:23.002Z,26.30
2022-12-31T11:49:21.038Z,26.06
2022-12-31T11:52:12.034Z,26.46
2022-12-31T11:55:14.037Z,25.81
2022-12-31T11:57:48.870Z,25.84
2022-12-31T12:00:24.677Z,25.59
2022-12-31T12:03:00.658Z,24.78
2022-12-31T12:05:28.487Z,25.71
2022-12-31T12:07:55.180Z,25.35
2022-12-31T12:10:36.439Z,24.57
2022-12-31T12:13:20.275Z,24.12
2022-12-31T12:15:50.895Z,23.81
2022-12-31T12:18:43.973Z,23.58
2022-12-31T12:21:25.128Z,23.58
2022-12-31T12:24:00.995Z,23.73
2022-12-31T12:26:34.657Z,23.46
2022-12-31T12:29:16.487Z,22.72
2022-12-31T12:32:14.261Z,22.71
2022-12-31T12:34:49.191Z,22.70
2022-12-31T12:37:29.604Z,22.72
2022-12-31T12:39:59.441Z,23.10
2022-12-31T12:42:26.558Z,23.40
2022-12-31T12:45:14.570Z,22.91
2022-12-31T12:47:43.058Z,22.98
2022-12-31T12:50:18.660Z,22.80
2022-12-31T12:53:20.905Z,22.44
2022-12-31T12:56:19.920Z,22.47
2022-12-31T12:59:19.508Z,22.28
2022-12-31T13:01:50.590Z,22.38
2022-12-31T13:04:51.614Z,21.98
2022-12-31T13:08:12.420Z,22.00
2022-12-31T13:11:04.003Z,21.91
2022-12-31T13:13:30.598Z,21.72
2022-12-31T13:16:08.985Z,21.68
2022-12-31T13:19:11.298Z,21.66
2022-12-31T13:21:37.871Z,21.61
2022-12-31T13:24:44.290Z,21.16
2022-12-31T13:27:35.329Z,21.10
2022-12-31T13:30:05.123Z,21.10
2022-12-31T13:32:46.096Z,21.38
2022-12-31T13:35:23.414Z,21.10
2022-12-31T13:37:57.816Z,21.43
2022-12-31T13:40:47.729Z,21.51
2022-12-31T13:43:51.895Z,21.46
2022-12-31T13:46:28.336Z,21.58
2022-12-31T13:49:02.932Z,21.78
2022-12-31T13:51:34.950Z,21.91
2022-12-31T13:54:06.557Z,22.01
2022-12-31T13:56:38.705Z,21.84
2022-12-31T13:59:26.373Z,21.75
2022-12-31T14:02:01.772Z,21.74
2022-12-31T14:04:36.606Z,21.71
2022-12-31T14:07:09.229Z,21.66
2022-12-31T14:09:37.694Z,21.41
2022-12-31T14:12:25.783Z,21.24
2022-12-31T14:15:18.357Z,21.52
2022-12-31T14:17:57.170Z,21.38
2022-12-31T14:20:29.485Z,21.03
2022-12-31T14:23:03.627Z,20.87
2022-12-31T14:25:51.340Z,20.96
2022-12-31T14:28:28.827Z,20.88
2022-12-31T14:31:05.093Z,20.89
2022-12-31T14:33:56.666Z,20.58
2022-12-31T14:36:38.512Z,20.68
2022-12-31T14:39:37.194Z,20.54
2022-12-31T14:42:12.742Z,20.16
2022-12-31T14:44:48.795Z,20.36
2022-12-31T14:47:25.035Z,20.47
2022-12-31T14:50:11.274Z,20.43
2022-12-31T14:52:51.969Z,20.42
2022-12-31T14:55:29.627Z,20.58
2022-12-31T14:58:27.289Z,20.44
2022-12-31T15:00:55.662Z,20.20
2022-12-31T15:03:31.547Z,20.33
2022-12-31T15:06:09.805Z,20.14
2022-12-31T15:09:10.767Z,20.13
2022-12-31T15:12:17.623Z,20.18
2022-12-31T15:15:02.876Z,19.99
2022-12-31T15:18:10.919Z,20.09
2022-12-31T15:21:12.228Z,20.12
2022-12-31T15:23:42.247Z,19.98
2022-12-31T15:26:23.000Z,19.87
2022-12-31T15:29:19.422Z,19.91
2022-12-31T15:31:47.873Z,19.93
2022-12-31T15:34:29.484Z,19.64
2022-12-31T15:37:02.101Z,19.82
2022-12-31T15:39:32.099Z,19.68
2022-12-31T15:44:57.718Z,19.66
2022-12-31T15:47:29.412Z,19.57
2022-12-31T15:49:59.582Z,19.23
2022-12-31T15:52:49.950Z,19.10
2022-12-31T15:55:26.579Z,19.25
2022-12-31T15:58:00.140Z,19.34
2022-12-31T16:00:36.460Z,19.24
2022-12-31T16:03:04.034Z,19.41
2022-12-31T16:05:35.165Z,19.28
2022-12-31T16:08:01.898Z,19.35
2022-12-31T16:10:31.616Z,19.22
2022-12-31T16:12:59.712Z,19.13
2022-12-31T16:15:30.258Z,19.22
2022-12-31T16:18:03.170Z,19.05
2022-12-31T16:20:31.790Z,19.21
2022-12-31T16:23:02.579Z,19.13
2022-12-31T16:25:32.835Z,19.15
2022-12-31T16:28:02.730Z,18.97
2022-12-31T16:30:32.475Z,19.06
2022-12-31T16:33:03.113Z,18.98
2022-12-31T16:35:35.021Z,19.10
2022-12-31T16:38:07.888Z,19.06
2022-12-31T16:40:34.752Z,18.94
2022-12-31T16:43:01.654Z,18.99
2022-12-31T16:45:36.754Z,19.02
2022-12-31T16:48:17.134Z,18.98
2022-12-31T16:50:55.808Z,18.93
2022-12-31T16:53:26.095Z,18.93
2022-12-31T16:56:02.065Z,18.89
2022-12-31T16:58:36.703Z,18.89
2022-12-31T17:01:25.588Z,18.88
2022-12-31T17:03:59.621Z,18.77
2022-12-31T17:06:28.365Z,18.72
2022-12-31T17:08:59.537Z,18.77
2022-12-31T17:12:15.752Z,18.71
2022-12-31T17:14:51.938Z,18.55
2022-12-31T17:17:28.142Z,18.75
2022-12-31T17:20:01.513Z,18.87
2022-12-31T17:22:35.738Z,18.70
2022-12-31T17:25:18.282Z,18.72
2022-12-31T17:27:59.432Z,18.66
2022-12-31T17:30:40.056Z,18.86
2022-12-31T17:33:22.068Z,19.06
2022-12-31T17:35:54.309Z,18.86
2022-12-31T17:38:20.869Z,18.93
2022-12-31T17:40:53.324Z,18.78
2022-12-31T17:43:22.660Z,18.74
2022-12-31T17:45:54.292Z,18.73
2022-12-31T17:48:23.332Z,18.49
2022-12-31T17:50:54.845Z,18.77
2022-12-31T17:53:22.117Z,18.66
2022-12-31T17:55:52.497Z,18.72
2022-12-31T17:58:29.799Z,18.59
2022-12-31T18:00:58.262Z,18.72
2022-12-31T18:03:25.181Z,18.72
2022-12-31T18:05:52.364Z,18.66
2022-12-31T18:08:18.962Z,18.68
2022-12-31T18:10:45.734Z,18.65
2022-12-31T18:13:19.059Z,18.66
2022-12-31T18:15:46.074Z,18.70
2022-12-31T18:18:30.455Z,18.63
2022-12-31T18:21:04.122Z,18.63
2022-12-31T18:23:37.367Z,18.60
2022-12-31T18:26:04.143Z,18.57
2022-12-31T18:28:30.805Z,18.58
2022-12-31T18:30:57.721Z,18.59
2022-12-31T18:33:25.706Z,18.44
2022-12-31T18:36:10.199Z,18.52
2022-12-31T18:38:37.700Z,18.34
2022-12-31T18:41:05.039Z,18.57
2022-12-31T18:43:32.275Z,18.32
2022-12-31T18:45:59.771Z,18.50
2022-12-31T18:48:26.552Z,18.40
2022-12-31T18:50:53.233Z,18.49
2022-12-31T18:53:22.376Z,18.58
2022-12-31T18:55:54.781Z,18.61
2022-12-31T18:58:22.175Z,18.48
2022-12-31T19:00:50.289Z,18.48
2022-12-31T19:03:20.470Z,18.49
2022-12-31T19:05:49.758Z,18.47
2022-12-31T19:08:21.852Z,18.22
2022-12-31T19:10:51.012Z,18.24
2022-12-31T19:13:19.405Z,18.30
2022-12-31T19:15:51.243Z,18.19
2022-12-31T19:18:18.265Z,18.21
2022-12-31T19:20:45.322Z,18.42
2022-12-31T19:23:16.342Z,18.29
2022-12-31T19:25:43.453Z,18.42
2022-12-31T19:28:25.188Z,18.49
2022-12-31T19:30:52.500Z,18.38
2022-12-31T19:33:19.705Z,18.55
2022-12-31T19:35:46.927Z,18.29
2022-12-31T19:38:23.016Z,18.32
2022-12-31T19:40:50.952Z,18.64
2022-12-31T19:43:20.456Z,18.70
2022-12-31T19:45:47.602Z,18.49
2022-12-31T19:48:19.832Z,18.43
2022-12-31T19:50:49.616Z,18.60
2022-12-31T19:53:22.996Z,18.47
2022-12-31T19:55:50.404Z,18.49
2022-12-31T19:58:25.251Z,18.39
2022-12-31T20:00:58.256Z,18.38
2022-12-31T20:03:28.731Z,18.26
2022-12-31T20:06:08.099Z,18.33
2022-12-31T20:08:36.137Z,18.34
2022-12-31T20:11:19.752Z,18.45
2022-12-31T20:13:47.814Z,18.52
2022-12-31T20:16:17.088Z,18.16
2022-12-31T20:18:45.921Z,18.36
2022-12-31T20:21:17.657Z,18.34
2022-12-31T20:23:44.782Z,18.50
2022-12-31T20:26:11.737Z,18.48
2022-12-31T20:28:38.524Z,18.45
2022-12-31T20:31:10.576Z,18.45
2022-12-31T20:33:37.408Z,18.44
2022-12-31T20:36:06.015Z,18.28
2022-12-31T20:38:33.098Z,18.22
2022-12-31T20:41:04.853Z,18.26
2022-12-31T20:43:32.867Z,18.01
2022-12-31T20:45:59.692Z,18.12
2022-12-31T20:48:26.492Z,18.05
2022-12-31T20:50:57.344Z,18.09
2022-12-31T20:53:24.368Z,18.00
2022-12-31T20:55:50.996Z,17.68
2022-12-31T20:58:17.897Z,17.81
2022-12-31T21:00:49.547Z,17.95
2022-12-31T21:03:53.506Z,17.82
2022-12-31T21:06:05.314Z,17.83
2022-12-31T21:08:34.966Z,17.93
2022-12-31T21:11:02.567Z,17.86
2022-12-31T21:13:29.503Z,17.81
2022-12-31T21:15:56.283Z,17.50
2022-12-31T21:18:23.123Z,17.53
2022-12-31T21:20:52.653Z,17.69
2022-12-31T21:23:20.450Z,17.67
2022-12-31T21:25:50.010Z,17.39
2022-12-31T21:28:16.987Z,17.59
2022-12-31T21:30:43.642Z,17.62
2022-12-31T21:33:10.304Z,17.66
2022-12-31T21:35:51.791Z,17.51
2022-12-31T21:38:20.628Z,17.71
2022-12-31T21:40:47.382Z,17.78
2022-12-31T21:43:15.226Z,17.58
2022-12-31T21:45:42.655Z,17.75
2022-12-31T21:48:22.001Z,17.64
2022-12-31T21:50:54.382Z,17.55
2022-12-31T21:53:29.047Z,17.48
2022-12-31T21:56:09.648Z,17.39
2022-12-31T21:58:38.130Z,17.62
2022-12-31T22:01:23.952Z,17.53
2022-12-31T22:03:50.939Z,17.51
2022-12-31T22:06:22.471Z,17.56
2022-12-31T22:08:51.537Z,17.53
2022-12-31T22:11:21.284Z,17.44
2022-12-31T22:13:48.800Z,17.58
2022-12-31T22:16:17.012Z,17.52
2022-12-31T22:18:44.190Z,17.33
2022-12-31T22:21:22.550Z,17.18
2022-12-31T22:23:51.875Z,17.43
2022-12-31T22:26:21.194Z,17.53
2022-12-31T22:28:48.181Z,17.45
2022-12-31T22:31:20.971Z,17.47
2022-12-31T22:33:48.121Z,17.52
2022-12-31T22:36:17.972Z,17.49
2022-12-31T22:38:45.368Z,17.56
2022-12-31T22:41:17.650Z,17.32
2022-12-31T22:43:46.935Z,17.46
2022-12-31T22:46:15.006Z,17.50
2022-12-31T22:48:42.732Z,17.42
2022-12-31T22:51:11.537Z,17.49
2022-12-31T22:53:39.877Z,17.49
2022-12-31T22:56:08.229Z,17.43
2022-12-31T22:58:35.342Z,17.46
2022-12-31T23:01:15.026Z,17.39
2022-12-31T23:03:42.249Z,17.34
2022-12-31T23:06:10.377Z,17.41
2022-12-31T23:08:37.104Z,17.24
2022-12-31T23:11:05.943Z,17.41
2022-12-31T23:13:59.149Z,17.60
2022-12-31T23:16:48.150Z,17.32
2022-12-31T23:19:34.097Z,17.37
2022-12-31T23:22:19.648Z,17.22
2022-12-31T23:24:46.434Z,17.36
2022-12-31T23:27:13.376Z,17.23
2022-12-31T23:29:46.558Z,17.15
2022-12-31T23:32:16.207Z,17.08
2022-12-31T23:34:44.561Z,17.22
2022-12-31T23:37:12.782Z,17.26
2022-12-31T23:39:39.822Z,17.22
2022-12-31T23:42:06.663Z,17.17
2022-12-31T23:44:33.356Z,17.35
2022-12-31T23:47:00.182Z,17.51
2022-12-31T23:49:27.021Z,17.21
2022-12-31T23:51:53.712Z,17.52
2022-12-31T23:54:20.458Z,17.41
2022-12-31T23:56:47.159Z,17.48
2022-12-31T23:59:13.774Z,17.56
